Time;durP1;ratioP1;P1;durP2;ratioP2;P2;SDS_P1;SDS_P2;PMS_P1;PMS_P2;Temp;Humidity;BMP_temperature;BMP_pressure;BME280_temperature;BME280_humidity;BME280_pressure;Samples;Min_cycle;Max_cycle;Signal;HPM_P1;HPM_P2
2021/04/30 00:00:53;;;;;;;;;;;;;;;5.77;100.00;98379.13;4893452;29;19939;-78
2021/04/30 00:03:19;;;;;;;;;;;;;;;5.73;100.00;98381.78;4894647;29;19915;-79
2021/04/30 00:05:45;;;;;;;;;;;;;;;5.81;100.00;98377.34;4900936;29;19924;-77
2021/04/30 00:08:12;;;;;;;;;;;;;;;5.74;100.00;98379.19;4909379;29;19926;-78
2021/04/30 00:10:38;;;;;;;;;;;;;;;5.72;100.00;98382.66;4885397;29;19926;-78
2021/04/30 00:13:03;;;;;;;;;;;;;;;5.90;100.00;98389.06;4908557;29;19970;-77
2021/04/30 00:15:28;;;;;;;;;;;;;;;5.83;100.00;98376.41;4906943;29;20357;-79
2021/04/30 00:17:54;;;;;;;;;;;;;;;5.99;100.00;98383.78;4909151;29;19947;-77
2021/04/30 00:20:19;;;;;;;;;;;;;;;5.92;100.00;98387.31;4903195;29;19939;-77
2021/04/30 00:22:44;;;;;;;;;;;;;;;5.77;100.00;98384.25;4898909;29;19915;-79
2021/04/30 00:25:10;;;;;;;;;;;;;;;5.77;100.00;98386.81;4901534;29;19918;-78
2021/04/30 00:27:36;;;;;;;;;;;;;;;5.87;100.00;98395.91;4914630;29;19919;-78
2021/04/30 00:30:02;;;;;;;;;;;;;;;5.64;100.00;98387.94;4911204;29;19922;-78
2021/04/30 00:32:28;;;;;;;;;;;;;;;5.62;100.00;98385.41;4910365;29;19919;-79
2021/04/30 00:34:53;;;;;;;;;;;;;;;5.82;100.00;98390.09;4912039;29;20274;-78
2021/04/30 00:37:19;;;;;;;;;;;;;;;5.76;100.00;98385.09;4910868;29;20297;-77
2021/04/30 00:39:44;;;;;;;;;;;;;;;5.77;100.00;98397.03;4909363;29;19922;-78
2021/04/30 00:42:10;;;;;;;;;;;;;;;5.54;100.00;98399.22;4895269;29;19939;-77
2021/04/30 00:44:35;;;;;;;;;;;;;;;5.62;100.00;98399.91;4911310;29;19930;-79
2021/04/30 00:47:00;;;;;;;;;;;;;;;5.79;100.00;98402.06;4911748;29;20018;-77
2021/04/30 00:49:27;;;;;;;;;;;;;;;5.78;100.00;98396.13;4909076;29;20225;-77
2021/04/30 00:51:53;;;;;;;;;;;;;;;5.77;100.00;98402.13;4926200;29;19919;-79
2021/04/30 00:54:18;;;;;;;;;;;;;;;5.72;100.00;98401.38;4927400;29;19915;-79
2021/04/30 00:56:44;;;;;;;;;;;;;;;5.60;100.00;98407.59;4910866;29;20374;-77
2021/04/30 00:59:09;;;;;;;;;;;;;;;5.55;100.00;98403.47;4899012;29;20373;-78
2021/04/30 01:01:34;;;;;;;;;;;;;;;5.85;100.00;98402.78;4896213;29;19946;-77
2021/04/30 01:04:00;;;;;;;;;;;;;;;5.73;100.00;98403.06;4909226;29;19923;-79
2021/04/30 01:06:25;;;;;;;;;;;;;;;5.69;100.00;98409.09;4911325;29;19982;-79
2021/04/30 01:08:51;;;;;;;;;;;;;;;5.72;100.00;98410.75;4895762;29;20021;-79
2021/04/30 01:11:16;;;;;;;;;;;;;;;5.95;100.00;98410.28;4914150;29;19930;-79
2021/04/30 01:13:42;;;;;;;;;;;;;;;5.89;100.00;98407.84;4905924;29;19919;-79
2021/04/30 01:16:07;;;;;;;;;;;;;;;5.56;100.00;98405.97;4899320;29;20509;-78
2021/04/30 01:18:46;;;;;;;;;;;;;;;5.82;100.00;98413.09;4914014;29;19911;-77
2021/04/30 01:21:11;;;;;;;;;;;;;;;5.64;100.00;98409.22;4903487;29;20013;-78
2021/04/30 01:23:47;;;;;;;;;;;;;;;5.70;100.00;98417.59;4914760;29;20412;-79
2021/04/30 01:26:13;;;;;;;;;;;;;;;5.62;100.00;98415.22;4905218;29;19919;-77
2021/04/30 01:28:38;;;;;;;;;;;;;;;5.79;100.00;98423.38;4896099;29;19923;-78
2021/04/30 01:31:03;;;;;;;;;;;;;;;5.70;100.00;98418.44;4909598;29;19943;-77
2021/04/30 01:33:29;;;;;;;;;;;;;;;5.73;100.00;98422.66;4908168;29;20038;-78
2021/04/30 01:35:54;;;;;;;;;;;;;;;5.56;100.00;98426.41;4909644;29;19965;-79
2021/04/30 01:38:20;;;;;;;;;;;;;;;5.44;100.00;98432.59;4907093;29;20478;-79
2021/04/30 01:40:45;;;;;;;;;;;;;;;5.62;100.00;98426.28;4928638;29;19915;-79
2021/04/30 01:43:14;;;;;;;;;;;;;;;5.67;100.00;98433.84;4900090;29;19915;-77
2021/04/30 01:45:43;;;;;;;;;;;;;;;5.45;100.00;98431.75;4902969;29;19940;-77
2021/04/30 01:48:12;;;;;;;;;;;;;;;5.53;100.00;98441.81;4907796;29;19915;-78
2021/04/30 01:50:38;;;;;;;;;;;;;;;5.70;100.00;98438.03;4897828;29;19951;-78
2021/04/30 01:53:03;;;;;;;;;;;;;;;5.59;100.00;98433.19;4896798;29;19919;-78
2021/04/30 01:55:29;;;;;;;;;;;;;;;5.51;100.00;98440.16;4893696;29;19919;-79
2021/04/30 01:57:54;;;;;;;;;;;;;;;5.70;100.00;98438.88;4908272;29;19919;-79
2021/04/30 02:00:24;;;;;;;;;;;;;;;5.45;100.00;98443.66;4913471;29;19954;-79
2021/04/30 02:02:50;;;;;;;;;;;;;;;5.69;100.00;98447.44;4892464;29;19915;-78
2021/04/30 02:05:16;;;;;;;;;;;;;;;5.42;100.00;98444.56;4902187;29;20417;-79
2021/04/30 02:07:41;;;;;;;;;;;;;;;5.64;100.00;98449.25;4910484;29;19940;-78
2021/04/30 02:10:07;;;;;;;;;;;;;;;5.40;100.00;98448.84;4902457;29;19923;-79
2021/04/30 02:12:32;;;;;;;;;;;;;;;5.48;100.00;98448.72;4901740;29;19920;-79
2021/04/30 02:14:58;;;;;;;;;;;;;;;5.45;100.00;98457.28;4914224;29;19930;-79
2021/04/30 02:17:23;;;;;;;;;;;;;;;5.65;100.00;98461.13;4911326;29;19956;-77
2021/04/30 02:19:48;;;;;;;;;;;;;;;5.65;100.00;98461.97;4898680;29;20034;-79
2021/04/30 02:22:14;;;;;;;;;;;;;;;5.56;100.00;98466.44;4899070;29;19915;-78
2021/04/30 02:24:40;;;;;;;;;;;;;;;6.07;100.00;98468.78;4914076;29;19938;-78
2021/04/30 02:27:05;;;;;;;;;;;;;;;5.93;100.00;98463.97;4903823;29;19915;-79
2021/04/30 02:29:31;;;;;;;;;;;;;;;6.34;100.00;98461.34;4879638;29;19934;-79
2021/04/30 02:31:57;;;;;;;;;;;;;;;5.90;100.00;98461.44;4877347;29;19931;-79
2021/04/30 02:34:22;;;;;;;;;;;;;;;6.41;100.00;98462.88;4893444;29;20002;-79
2021/04/30 02:36:48;;;;;;;;;;;;;;;5.70;100.00;98471.25;4895551;29;19919;-79
2021/04/30 02:39:13;;;;;;;;;;;;;;;5.78;100.00;98462.56;4896362;29;19915;-79
2021/04/30 02:41:38;;;;;;;;;;;;;;;5.75;100.00;98465.19;4881152;29;19922;-79
2021/04/30 02:44:04;;;;;;;;;;;;;;;5.98;100.00;98458.78;4896512;29;19939;-78
2021/04/30 02:46:30;;;;;;;;;;;;;;;6.21;100.00;98461.66;4890165;29;19923;-78
2021/04/30 02:49:02;;;;;;;;;;;;;;;5.92;100.00;98458.88;4875336;29;20365;-79
2021/04/30 02:51:27;;;;;;;;;;;;;;;5.63;100.00;98463.75;4880162;29;19923;-79
2021/04/30 02:53:54;;;;;;;;;;;;;;;5.62;100.00;98468.88;4895824;29;19946;-80
2021/04/30 02:56:22;;;;;;;;;;;;;;;5.79;100.00;98466.81;4875162;29;19955;-79
2021/04/30 02:58:53;;;;;;;;;;;;;;;5.96;100.00;98468.19;4889672;29;20274;-77
2021/04/30 03:01:18;;;;;;;;;;;;;;;5.84;100.00;98462.44;4874471;29;19994;-78
2021/04/30 03:03:43;;;;;;;;;;;;;;;5.97;100.00;98469.84;4874966;29;20409;-79
2021/04/30 03:06:09;;;;;;;;;;;;;;;5.61;100.00;98469.72;4895626;29;19941;-79
2021/04/30 03:08:35;;;;;;;;;;;;;;;6.02;100.00;98480.81;4879247;29;19930;-78
2021/04/30 03:11:00;;;;;;;;;;;;;;;6.13;100.00;98473.75;4880612;29;19915;-80
2021/04/30 03:13:25;;;;;;;;;;;;;;;5.88;100.00;98468.31;4895777;29;19931;-79
2021/04/30 03:15:51;;;;;;;;;;;;;;;5.75;100.00;98477.97;4895308;29;19922;-80
2021/04/30 03:18:16;;;;;;;;;;;;;;;5.71;100.00;98481.44;4879620;29;20011;-80
2021/04/30 03:20:41;;;;;;;;;;;;;;;6.04;100.00;98473.97;4879561;29;19943;-80
2021/04/30 03:23:07;;;;;;;;;;;;;;;5.94;100.00;98472.47;4894767;29;19929;-79
2021/04/30 03:25:32;;;;;;;;;;;;;;;6.02;100.00;98480.81;4889037;29;19923;-80
2021/04/30 03:27:57;;;;;;;;;;;;;;;5.50;100.00;98479.34;4896134;29;19930;-79
2021/04/30 03:30:23;;;;;;;;;;;;;;;5.23;100.00;98474.72;4896324;29;20401;-80
2021/04/30 03:32:48;;;;;;;;;;;;;;;5.62;100.00;98477.38;4872626;29;20526;-80
2021/04/30 03:35:18;;;;;;;;;;;;;;;5.69;100.00;98479.81;4882067;29;19915;-80
2021/04/30 03:37:43;;;;;;;;;;;;;;;5.44;100.00;98473.47;4886542;29;19919;-79
2021/04/30 03:40:09;;;;;;;;;;;;;;;5.82;100.00;98482.06;4895316;29;19915;-80
2021/04/30 03:42:34;;;;;;;;;;;;;;;5.71;100.00;98486.56;4884885;29;19926;-79
2021/04/30 03:45:00;;;;;;;;;;;;;;;5.45;100.00;98480.28;4893005;29;20377;-78
2021/04/30 03:47:25;;;;;;;;;;;;;;;5.71;100.00;98485.72;4881453;29;19926;-78
2021/04/30 03:49:51;;;;;;;;;;;;;;;5.44;100.00;98488.78;4883166;29;19923;-77
2021/04/30 03:52:16;;;;;;;;;;;;;;;5.60;100.00;98485.94;4884989;29;19986;-79
2021/04/30 03:54:42;;;;;;;;;;;;;;;5.67;100.00;98492.59;4884463;29;19950;-79
2021/04/30 03:57:07;;;;;;;;;;;;;;;5.85;100.00;98499.88;4876302;29;20007;-78
2021/04/30 03:59:33;;;;;;;;;;;;;;;5.47;100.00;98497.25;4871345;29;19915;-79
2021/04/30 04:01:59;;;;;;;;;;;;;;;5.43;100.00;98502.44;4872101;29;19986;-80
2021/04/30 04:04:24;;;;;;;;;;;;;;;5.74;100.00;98499.25;4892680;29;19930;-76
2021/04/30 04:06:50;;;;;;;;;;;;;;;5.97;100.00;98495.41;4885910;29;19927;-76
2021/04/30 04:09:16;;;;;;;;;;;;;;;5.65;100.00;98502.84;4871342;29;19923;-77
2021/04/30 04:11:43;;;;;;;;;;;;;;;5.63;100.00;98498.63;4884716;29;19934;-76
2021/04/30 04:14:09;;;;;;;;;;;;;;;5.80;100.00;98505.97;4884290;29;19950;-77
2021/04/30 04:16:35;;;;;;;;;;;;;;;6.02;100.00;98511.50;4883932;29;19979;-76
2021/04/30 04:19:00;;;;;;;;;;;;;;;6.21;100.00;98511.94;4885436;29;19919;-79
2021/04/30 04:21:26;;;;;;;;;;;;;;;5.82;100.00;98512.72;4885239;29;20619;-79
2021/04/30 04:23:52;;;;;;;;;;;;;;;5.48;100.00;98512.56;4874179;29;19918;-78
2021/04/30 04:26:17;;;;;;;;;;;;;;;6.02;100.00;98516.59;4872063;29;19915;-78
2021/04/30 04:28:43;;;;;;;;;;;;;;;5.58;100.00;98515.78;4893274;29;20021;-78
2021/04/30 04:31:08;;;;;;;;;;;;;;;5.41;100.00;98519.50;4884806;29;20436;-78
2021/04/30 04:33:33;;;;;;;;;;;;;;;5.52;100.00;98521.84;4876121;29;20050;-79
2021/04/30 04:35:59;;;;;;;;;;;;;;;5.81;100.00;98523.81;4892697;29;20331;-78
2021/04/30 04:38:26;;;;;;;;;;;;;;;5.48;100.00;98534.72;4883665;29;21061;-77
2021/04/30 04:40:51;;;;;;;;;;;;;;;5.70;100.00;98545.34;4884828;29;19974;-79
2021/04/30 04:43:17;;;;;;;;;;;;;;;5.82;100.00;98545.94;4889228;29;19954;-77
2021/04/30 04:45:42;;;;;;;;;;;;;;;5.48;100.00;98544.94;4894922;29;19926;-77
2021/04/30 04:48:07;;;;;;;;;;;;;;;5.32;100.00;98547.75;4878392;29;20452;-78
2021/04/30 04:50:33;;;;;;;;;;;;;;;5.26;100.00;98547.88;4892655;29;19951;-78
2021/04/30 04:52:58;;;;;;;;;;;;;;;5.32;100.00;98550.31;4884940;29;19923;-78
2021/04/30 04:55:23;;;;;;;;;;;;;;;5.26;100.00;98549.56;4870751;29;19919;-79
2021/04/30 04:57:49;;;;;;;;;;;;;;;5.45;100.00;98545.81;4892122;29;19922;-80
2021/04/30 05:00:14;;;;;;;;;;;;;;;5.29;100.00;98546.97;4875132;29;20360;-79
2021/04/30 05:02:40;;;;;;;;;;;;;;;5.50;100.00;98538.94;4875091;29;19958;-79
2021/04/30 05:05:06;;;;;;;;;;;;;;;5.60;100.00;98545.53;4877313;29;19915;-78
2021/04/30 05:07:31;;;;;;;;;;;;;;;5.58;100.00;98546.44;4891086;29;19984;-77
2021/04/30 05:09:56;;;;;;;;;;;;;;;5.64;100.00;98546.31;4878148;29;19970;-77
2021/04/30 05:12:22;;;;;;;;;;;;;;;5.69;100.00;98544.50;4907878;29;19923;-75
2021/04/30 05:14:47;;;;;;;;;;;;;;;5.86;100.00;98541.59;4907894;29;20010;-79
2021/04/30 05:17:13;;;;;;;;;;;;;;;5.60;100.00;98547.25;4909063;29;19926;-78
2021/04/30 05:19:38;;;;;;;;;;;;;;;5.67;100.00;98548.81;4870975;29;19925;-79
2021/04/30 05:22:10;;;;;;;;;;;;;;;5.68;100.00;98552.19;4908401;29;20373;-78
2021/04/30 05:24:36;;;;;;;;;;;;;;;5.69;100.00;98559.84;4885433;29;19919;-78
2021/04/30 05:27:10;;;;;;;;;;;;;;;5.70;100.00;98560.66;4883521;29;19978;-77
2021/04/30 05:29:35;;;;;;;;;;;;;;;5.83;100.00;98565.50;4878389;29;20413;-79
2021/04/30 05:32:00;;;;;;;;;;;;;;;6.16;100.00;98568.28;4874807;29;19926;-76
2021/04/30 05:34:26;;;;;;;;;;;;;;;6.09;100.00;98571.88;4890049;29;19922;-77
2021/04/30 05:36:51;;;;;;;;;;;;;;;6.03;100.00;98584.75;4870311;29;19916;-78
2021/04/30 05:39:16;;;;;;;;;;;;;;;5.78;100.00;98575.00;4875108;29;19934;-77
2021/04/30 05:41:42;;;;;;;;;;;;;;;5.87;100.00;98585.03;4888773;29;19975;-78
2021/04/30 05:44:07;;;;;;;;;;;;;;;6.03;100.00;98575.38;4890624;29;20368;-78
2021/04/30 05:46:33;;;;;;;;;;;;;;;6.54;100.00;98571.72;4892206;29;19973;-77
2021/04/30 05:48:58;;;;;;;;;;;;;;;6.25;100.00;98565.53;4870676;29;20316;-76
2021/04/30 05:51:23;;;;;;;;;;;;;;;6.28;100.00;98568.03;4909990;29;19919;-78
2021/04/30 05:53:48;;;;;;;;;;;;;;;6.19;100.00;98565.66;4872222;29;20329;-75
2021/04/30 05:56:14;;;;;;;;;;;;;;;6.75;100.00;98565.28;4893829;29;19919;-76
2021/04/30 05:58:39;;;;;;;;;;;;;;;7.18;100.00;98563.38;4892927;29;19919;-77
2021/04/30 06:01:05;;;;;;;;;;;;;;;6.72;100.00;98572.19;4877894;29;19922;-77
2021/04/30 06:03:30;;;;;;;;;;;;;;;6.64;100.00;98568.09;4909660;29;19915;-76
2021/04/30 06:05:55;;;;;;;;;;;;;;;6.86;100.00;98573.53;4893693;29;19923;-78
2021/04/30 06:08:21;;;;;;;;;;;;;;;6.88;100.00;98579.44;4880163;29;19916;-78
2021/04/30 06:10:46;;;;;;;;;;;;;;;6.99;100.00;98584.31;4879554;29;20282;-78
2021/04/30 06:13:11;;;;;;;;;;;;;;;7.16;100.00;98576.25;4892753;29;20404;-77
2021/04/30 06:15:37;;;;;;;;;;;;;;;7.41;100.00;98584.13;4868405;29;20392;-78
2021/04/30 06:18:02;;;;;;;;;;;;;;;6.63;100.00;98581.75;4893237;29;19919;-79
2021/04/30 06:20:28;;;;;;;;;;;;;;;7.18;100.00;98578.75;4892850;29;19927;-78
2021/04/30 06:22:53;;;;;;;;;;;;;;;6.95;100.00;98585.25;4876940;29;19925;-76
2021/04/30 06:25:18;;;;;;;;;;;;;;;6.46;100.00;98583.84;4907636;29;20005;-78
2021/04/30 06:27:44;;;;;;;;;;;;;;;6.15;100.00;98589.59;4891988;29;20030;-78
2021/04/30 06:30:09;;;;;;;;;;;;;;;6.58;100.00;98587.84;4885474;29;19930;-76
2021/04/30 06:32:35;;;;;;;;;;;;;;;6.47;100.00;98586.34;4910021;29;20092;-76
2021/04/30 06:35:00;;;;;;;;;;;;;;;6.69;100.00;98585.88;4871971;29;19919;-79
2021/04/30 06:37:26;;;;;;;;;;;;;;;6.60;100.00;98593.78;4879029;29;20855;-76
2021/04/30 06:39:53;;;;;;;;;;;;;;;6.98;100.00;98592.88;4870300;29;20352;-77
2021/04/30 06:42:18;;;;;;;;;;;;;;;7.06;100.00;98596.09;4872241;29;20000;-77
2021/04/30 06:44:44;;;;;;;;;;;;;;;6.75;100.00;98595.13;4891812;29;19927;-80
2021/04/30 06:47:09;;;;;;;;;;;;;;;6.85;100.00;98601.72;4893453;29;19915;-80
2021/04/30 06:49:34;;;;;;;;;;;;;;;6.45;100.00;98603.47;4876363;29;20249;-80
2021/04/30 06:52:00;;;;;;;;;;;;;;;6.49;100.00;98601.69;4893084;29;19919;-78
2021/04/30 06:54:25;;;;;;;;;;;;;;;6.69;100.00;98602.06;4891975;29;19941;-79
2021/04/30 06:56:50;;;;;;;;;;;;;;;7.24;100.00;98606.78;4892213;29;19923;-79
2021/04/30 06:59:16;;;;;;;;;;;;;;;6.70;100.00;98608.03;4890953;29;20498;-78
2021/04/30 07:01:41;;;;;;;;;;;;;;;6.50;100.00;98611.06;4876888;29;19926;-79
2021/04/30 07:04:09;;;;;;;;;;;;;;;6.44;100.00;98606.91;4892251;29;19923;-78
2021/04/30 07:06:35;;;;;;;;;;;;;;;6.64;100.00;98614.13;4909537;29;19923;-79
2021/04/30 07:09:00;;;;;;;;;;;;;;;6.74;100.00;98621.63;4886059;29;19973;-79
2021/04/30 07:11:26;;;;;;;;;;;;;;;7.12;100.00;98616.44;4875493;29;19919;-78
2021/04/30 07:13:51;;;;;;;;;;;;;;;6.64;100.00;98620.97;4888754;29;19919;-77
2021/04/30 07:16:17;;;;;;;;;;;;;;;6.96;100.00;98624.53;4873646;29;20021;-79
2021/04/30 07:18:42;;;;;;;;;;;;;;;7.08;100.00;98619.94;4873391;29;19931;-79
2021/04/30 07:21:09;;;;;;;;;;;;;;;6.92;100.00;98618.63;4889696;29;20361;-79
2021/04/30 07:23:34;;;;;;;;;;;;;;;6.91;100.00;98627.16;4873875;29;19958;-79
2021/04/30 07:26:00;;;;;;;;;;;;;;;6.63;100.00;98626.97;4889256;29;19982;-77
2021/04/30 07:28:26;;;;;;;;;;;;;;;6.93;100.00;98625.41;4863166;29;19918;-78
2021/04/30 07:30:51;;;;;;;;;;;;;;;6.82;100.00;98624.81;4888703;29;19926;-80
2021/04/30 07:33:17;;;;;;;;;;;;;;;6.26;100.00;98630.31;4877450;29;19923;-79
2021/04/30 07:35:42;;;;;;;;;;;;;;;6.48;100.00;98630.72;4888667;29;19922;-78
2021/04/30 07:38:08;;;;;;;;;;;;;;;6.46;100.00;98625.63;4881736;29;19939;-78
2021/04/30 07:40:34;;;;;;;;;;;;;;;6.97;100.00;98624.47;4888419;29;19930;-78
2021/04/30 07:42:59;;;;;;;;;;;;;;;6.58;100.00;98624.50;4872989;29;19919;-78
2021/04/30 07:45:24;;;;;;;;;;;;;;;7.00;100.00;98621.00;4888829;29;19919;-78
2021/04/30 07:47:50;;;;;;;;;;;;;;;7.04;100.00;98618.31;4859504;29;20026;-78
2021/04/30 07:50:15;;;;;;;;;;;;;;;7.22;100.00;98619.59;4873570;29;20005;-80
2021/04/30 07:52:40;;;;;;;;;;;;;;;7.27;100.00;98619.50;4888154;29;19930;-79
2021/04/30 07:55:06;;;;;;;;;;;;;;;7.21;100.00;98624.78;4888266;29;19925;-79
2021/04/30 07:57:34;;;;;;;;;;;;;;;6.79;100.00;98628.28;4861103;29;19927;-79
2021/04/30 08:00:00;;;;;;;;;;;;;;;7.37;100.00;98620.97;4885983;29;19982;-77
2021/04/30 08:02:25;;;;;;;;;;;;;;;6.96;100.00;98627.09;4878374;29;20618;-79
2021/04/30 08:04:50;;;;;;;;;;;;;;;6.58;100.00;98628.78;4872347;29;20326;-77
2021/04/30 08:07:16;;;;;;;;;;;;;;;6.77;100.00;98630.03;4873880;29;19981;-79
2021/04/30 08:09:42;;;;;;;;;;;;;;;6.83;100.00;98636.75;4871106;29;19957;-77
2021/04/30 08:12:08;;;;;;;;;;;;;;;6.87;100.00;98635.81;4873815;29;19998;-78
2021/04/30 08:14:33;;;;;;;;;;;;;;;6.74;100.00;98634.41;4904579;29;19923;-79
2021/04/30 08:16:59;;;;;;;;;;;;;;;6.57;100.00;98638.19;4888413;29;19971;-79
2021/04/30 08:19:25;;;;;;;;;;;;;;;6.52;100.00;98639.97;4875831;29;19930;-78
2021/04/30 08:21:51;;;;;;;;;;;;;;;6.79;100.00;98653.06;4887100;29;20309;-77
2021/04/30 08:24:16;;;;;;;;;;;;;;;7.06;100.00;98651.59;4887717;29;19919;-77
2021/04/30 08:26:42;;;;;;;;;;;;;;;7.16;100.00;98653.06;4888344;29;20402;-78
2021/04/30 08:29:07;;;;;;;;;;;;;;;7.42;100.00;98657.53;4871859;29;19919;-77
2021/04/30 08:31:32;;;;;;;;;;;;;;;7.77;100.00;98657.53;4888182;29;19971;-77
2021/04/30 08:33:58;;;;;;;;;;;;;;;7.62;100.00;98666.44;4866800;29;19949;-77
2021/04/30 08:36:23;;;;;;;;;;;;;;;7.06;100.00;98665.22;4905316;29;20622;-77
2021/04/30 08:38:49;;;;;;;;;;;;;;;6.86;100.00;98654.59;4872763;29;19918;-78
2021/04/30 08:41:15;;;;;;;;;;;;;;;7.46;100.00;98661.72;4887984;29;19943;-78
2021/04/30 08:43:41;;;;;;;;;;;;;;;7.78;100.00;98662.63;4857453;29;19953;-77
2021/04/30 08:46:06;;;;;;;;;;;;;;;7.41;100.00;98658.44;4884817;29;19923;-78
2021/04/30 08:48:32;;;;;;;;;;;;;;;7.80;100.00;98658.31;4884582;29;20972;-77
2021/04/30 08:50:58;;;;;;;;;;;;;;;7.33;100.00;98665.47;4865085;29;19993;-78
2021/04/30 08:53:23;;;;;;;;;;;;;;;7.58;100.00;98659.72;4877349;29;19927;-77
2021/04/30 08:55:51;;;;;;;;;;;;;;;7.63;100.00;98663.84;4887095;29;19947;-77
2021/04/30 08:58:22;;;;;;;;;;;;;;;8.33;100.00;98660.28;4872239;29;19954;-79
2021/04/30 09:00:48;;;;;;;;;;;;;;;8.13;100.00;98658.25;4888740;29;19923;-78
2021/04/30 09:03:13;;;;;;;;;;;;;;;7.78;100.00;98667.75;4874362;29;20412;-77
2021/04/30 09:05:44;;;;;;;;;;;;;;;7.71;100.00;98661.94;4871649;29;19927;-78
2021/04/30 09:08:09;;;;;;;;;;;;;;;8.52;100.00;98664.00;4874562;29;19955;-78
2021/04/30 09:10:40;;;;;;;;;;;;;;;8.20;100.00;98669.19;4871050;29;19923;-77
2021/04/30 09:13:06;;;;;;;;;;;;;;;7.89;100.00;98670.00;4874833;29;19930;-78
2021/04/30 09:15:32;;;;;;;;;;;;;;;7.66;100.00;98668.03;4887386;29;19919;-78
2021/04/30 09:18:14;;;;;;;;;;;;;;;8.19;100.00;98673.50;4873792;29;19982;-78
2021/04/30 09:20:39;;;;;;;;;;;;;;;8.39;100.00;98670.34;4864434;29;19955;-77
2021/04/30 09:23:04;;;;;;;;;;;;;;;8.45;100.00;98675.34;4906634;29;19915;-77
2021/04/30 09:25:30;;;;;;;;;;;;;;;8.77;100.00;98671.00;4876788;29;20246;-76
2021/04/30 09:27:57;;;;;;;;;;;;;;;8.49;100.00;98676.94;4884680;29;20555;-77
2021/04/30 09:30:26;;;;;;;;;;;;;;;8.92;100.00;98677.41;4889817;29;19970;-77
2021/04/30 09:33:11;;;;;;;;;;;;;;;9.13;100.00;98674.16;4890329;29;20279;-76
2021/04/30 09:35:45;;;;;;;;;;;;;;;9.16;100.00;98674.06;4863976;29;19926;-78
2021/04/30 09:38:14;;;;;;;;;;;;;;;9.04;100.00;98682.16;4906129;29;19965;-77
2021/04/30 09:40:40;;;;;;;;;;;;;;;7.99;100.00;98680.88;4878238;29;19930;-77
2021/04/30 09:43:06;;;;;;;;;;;;;;;8.78;100.00;98678.66;4864573;29;19919;-77
2021/04/30 09:45:32;;;;;;;;;;;;;;;8.98;100.00;98684.91;4880152;29;20449;-77
2021/04/30 09:48:01;;;;;;;;;;;;;;;9.02;100.00;98678.78;4886299;29;20002;-76
2021/04/30 09:50:27;;;;;;;;;;;;;;;8.53;100.00;98677.69;4875478;29;19939;-77
2021/04/30 09:52:53;;;;;;;;;;;;;;;8.70;100.00;98684.91;4882920;29;19942;-77
2021/04/30 09:55:19;;;;;;;;;;;;;;;8.78;100.00;98683.81;4877216;29;19919;-77
2021/04/30 09:57:44;;;;;;;;;;;;;;;9.12;100.00;98677.63;4889461;29;19925;-77
2021/04/30 10:00:11;;;;;;;;;;;;;;;9.05;100.00;98686.41;4889703;29;19919;-77
2021/04/30 10:02:37;;;;;;;;;;;;;;;8.56;100.00;98688.72;4889643;29;19923;-77
2021/04/30 10:05:32;;;;;;;;;;;;;;;8.31;100.00;98690.25;4874819;29;19979;-77
2021/04/30 10:07:57;;;;;;;;;;;;;;;7.87;100.00;98693.16;4895462;29;20001;-79
2021/04/30 10:10:23;;;;;;;;;;;;;;;8.83;100.00;98700.81;4868383;29;20306;-78
2021/04/30 10:12:49;;;;;;;;;;;;;;;9.17;100.00;98691.16;4878174;29;20014;-76
2021/04/30 10:15:15;;;;;;;;;;;;;;;9.48;100.00;98691.91;4861624;29;21224;-76
2021/04/30 10:17:41;;;;;;;;;;;;;;;9.73;100.00;98694.53;4889311;29;19919;-78
2021/04/30 10:20:08;;;;;;;;;;;;;;;9.97;100.00;98693.69;4877779;29;19930;-78
2021/04/30 10:22:34;;;;;;;;;;;;;;;9.85;100.00;98694.09;4861879;29;19923;-77
2021/04/30 10:25:00;;;;;;;;;;;;;;;9.69;100.00;98687.78;4875078;29;19954;-77
2021/04/30 10:27:27;;;;;;;;;;;;;;;9.44;100.00;98688.59;4877040;29;19919;-77
2021/04/30 10:29:55;;;;;;;;;;;;;;;9.54;100.00;98687.41;4889076;29;20344;-77
2021/04/30 10:32:20;;;;;;;;;;;;;;;9.27;100.00;98690.88;4876141;29;19994;-78
2021/04/30 10:34:46;;;;;;;;;;;;;;;8.53;100.00;98687.94;4860639;29;20373;-77
2021/04/30 10:37:12;;;;;;;;;;;;;;;9.25;100.00;98688.34;4889479;29;19954;-76
2021/04/30 10:39:38;;;;;;;;;;;;;;;8.33;100.00;98689.34;4878254;29;19947;-78
2021/04/30 10:42:07;;;;;;;;;;;;;;;8.29;100.00;98690.28;4889630;29;20804;-77
2021/04/30 10:44:33;;;;;;;;;;;;;;;8.28;100.00;98687.75;4867656;29;19930;-77
2021/04/30 10:47:04;;;;;;;;;;;;;;;8.12;100.00;98682.25;4870903;29;19918;-77
2021/04/30 10:49:30;;;;;;;;;;;;;;;8.14;100.00;98685.56;4904578;29;19915;-76
2021/04/30 10:52:08;;;;;;;;;;;;;;;7.85;100.00;98679.53;4863726;29;19919;-76
2021/04/30 10:54:34;;;;;;;;;;;;;;;8.11;100.00;98680.53;4877058;29;19926;-77
2021/04/30 10:57:07;;;;;;;;;;;;;;;8.22;100.00;98688.78;4879943;29;19926;-76
2021/04/30 10:59:35;;;;;;;;;;;;;;;7.83;100.00;98694.09;4890608;29;19925;-77
2021/04/30 11:02:21;;;;;;;;;;;;;;;8.11;100.00;98693.38;4906966;29;21060;-78
2021/04/30 11:05:05;;;;;;;;;;;;;;;7.86;100.00;98699.13;4892965;29;19919;-77
2021/04/30 11:07:31;;;;;;;;;;;;;;;7.82;100.00;98700.09;4905184;29;19923;-77
2021/04/30 11:09:56;;;;;;;;;;;;;;;7.81;100.00;98700.16;4888005;29;21121;-76
2021/04/30 11:12:22;;;;;;;;;;;;;;;7.80;100.00;98696.75;4887876;29;20018;-76
2021/04/30 11:14:59;;;;;;;;;;;;;;;8.15;100.00;98697.53;4904691;29;19970;-76
2021/04/30 11:17:43;;;;;;;;;;;;;;;7.93;100.00;98698.09;4860218;29;19923;-77
2021/04/30 11:20:12;;;;;;;;;;;;;;;8.98;100.00;98687.47;4905136;29;19955;-77
2021/04/30 11:22:37;;;;;;;;;;;;;;;9.10;100.00;98699.09;4889170;29;20670;-77
2021/04/30 11:25:03;;;;;;;;;;;;;;;8.50;100.00;98694.00;4886584;29;19923;-78
2021/04/30 11:27:29;;;;;;;;;;;;;;;8.17;100.00;98690.66;4876479;29;19923;-77
2021/04/30 11:30:13;;;;;;;;;;;;;;;8.26;100.00;98698.09;4875515;29;19919;-78
2021/04/30 11:32:42;;;;;;;;;;;;;;;8.09;100.00;98695.97;4874625;29;19919;-78
2021/04/30 11:35:10;;;;;;;;;;;;;;;7.92;100.00;98696.41;4887713;29;20042;-77
2021/04/30 11:37:36;;;;;;;;;;;;;;;8.09;100.00;98685.69;4888826;29;19919;-78
2021/04/30 11:40:01;;;;;;;;;;;;;;;8.22;100.00;98688.78;4887774;29;19919;-77
2021/04/30 11:42:28;;;;;;;;;;;;;;;8.29;100.00;98686.91;4889097;29;19933;-78
2021/04/30 11:44:53;;;;;;;;;;;;;;;8.49;100.00;98676.94;4888096;29;19918;-78
2021/04/30 11:47:18;;;;;;;;;;;;;;;8.48;100.00;98680.38;4864353;29;19926;-76
2021/04/30 11:49:44;;;;;;;;;;;;;;;8.57;100.00;98682.69;4867958;29;20457;-77
2021/04/30 11:52:12;;;;;;;;;;;;;;;8.48;100.00;98682.09;4872325;29;19923;-77
2021/04/30 11:54:41;;;;;;;;;;;;;;;9.23;100.00;98679.00;4865697;29;19923;-77
2021/04/30 11:57:07;;;;;;;;;;;;;;;8.73;100.00;98677.94;4893297;29;19965;-76
2021/04/30 11:59:37;;;;;;;;;;;;;;;8.80;100.00;98670.91;4870832;29;19915;-79
2021/04/30 12:02:11;;;;;;;;;;;;;;;9.41;100.00;98668.97;4896475;29;19915;-77
2021/04/30 12:04:49;;;;;;;;;;;;;;;9.46;100.00;98681.69;4886798;29;20503;-76
2021/04/30 12:07:14;;;;;;;;;;;;;;;9.88;100.00;98676.00;4909998;29;19931;-78
2021/04/30 12:09:40;;;;;;;;;;;;;;;10.17;100.00;98674.13;4881330;29;19923;-77
2021/04/30 12:12:21;;;;;;;;;;;;;;;9.40;100.00;98681.91;4885673;29;19919;-77
2021/04/30 12:14:54;;;;;;;;;;;;;;;9.43;100.00;98681.78;4900594;29;19946;-77
2021/04/30 12:17:23;;;;;;;;;;;;;;;9.18;100.00;98680.00;4897005;29;20444;-78
2021/04/30 12:19:59;;;;;;;;;;;;;;;10.13;100.00;98670.00;4870731;29;19957;-77
2021/04/30 12:22:25;;;;;;;;;;;;;;;9.70;100.00;98668.91;4887505;29;20034;-77
2021/04/30 12:24:50;;;;;;;;;;;;;;;8.87;100.00;98667.28;4882964;29;19942;-79
2021/04/30 12:27:26;;;;;;;;;;;;;;;9.21;100.00;98667.06;4900463;29;19916;-77
2021/04/30 12:29:51;;;;;;;;;;;;;;;8.77;100.00;98666.69;4881186;29;19920;-77
2021/04/30 12:32:24;;;;;;;;;;;;;;;8.64;100.00;98667.09;4880657;29;19929;-76
2021/04/30 12:34:50;;;;;;;;;;;;;;;8.83;100.00;98670.00;4899232;29;19919;-78
2021/04/30 12:37:15;;;;;;;;;;;;;;;8.62;100.00;98674.00;4880666;29;19920;-79
2021/04/30 12:39:41;;;;;;;;;;;;;;;9.00;100.00;98672.88;4884775;29;19987;-76
2021/04/30 12:42:07;;;;;;;;;;;;;;;9.65;100.00;98671.66;4868670;29;21308;-75
2021/04/30 12:44:32;;;;;;;;;;;;;;;9.99;100.00;98663.63;4891522;29;19927;-75